Webcam 1 more information Webcam 1


Webcam 2 more information Webcam 2


altri nostri siti meteo:

Pomeziameteo 1Sito sul meteo

Pomeziameteo DashboardSito sul meteo

Caput FrigorisSito sul meteo

BarcellonameteoSito sul meteo

MeteoipassiSito sul meteo

ViterbometeoSito sul meteo

MeteotortoretoSito sul meteo

Stazione LineameteoSito sul meteo



Problemi di comunicazione, Vai direttamente al sito di Meteoalarm : www.meteoalarm.eu e controlla gli allarmi .


Notice: Undefined offset: 6 in /web/htdocs/www.castelnuovovomanometeo.it/home/weather28/metar/metarDisplay.php on line 76

Notice: Undefined offset: 5 in /web/htdocs/www.castelnuovovomanometeo.it/home/weather28/metar/metarDisplay.php on line 76

Report METAR

   
LIBP - Pescara
Dati ricevuti: 06-07-2022 12:20
Sereno  
Sereno  
   Vento: NE 18.5 km/h
Vento: NE 18.5 km/h
Temperatura: 31°C
Indice di Calore: 32°C
P.to Rugiada: 19°C
Umidita: 49%
Barometro: 1016 hPa
Nuvole: Sereno
Visibilita: oltre 10 km
dettagli cloud: Sereno
LIBP 061020Z AUTO 03010KT 350V060 9999 NCD 31/19 Q1016
LIRZ - Perugia
Dati ricevuti: 06-07-2022 12:20
Sereno  
Sereno  
   Vento: Nord 11.1 km/h
Vento: Nord 11.1 km/h
Temperatura: 33°C
P.to Rugiada: 14°C
Umidita: 32%
Barometro: 1015 hPa
Nuvole: Sereno
Visibilita: oltre 10 km
dettagli cloud: Sereno
LIRZ 061020Z AUTO 01006KT 330V060 9999 NCD 33/14 Q1015
LIQN - Rieti
Dati ricevuti: 06-07-2022 11:50
Sereno  
Sereno  
   Vento: W 5.6 km/h
Vento: W 5.6 km/h
Temperatura: 31°C
P.to Rugiada: 13°C
Umidita: 33%
Barometro: 1017 hPa
Visibilita: oltre 10 km
dettagli cloud: Sereno
LIQN 060950Z 25003KT 190V340 CAVOK 31/13 Q1017
LIPY - Falconara
Dati ricevuti: 06-07-2022 12:20
Sereno  
Sereno  
   Vento: NE 22.2 km/h
Vento: NE 22.2 km/h
Temperatura: 29°C
Indice di Calore: 31°C
P.to Rugiada: 20°C
Umidita: 58%
Barometro: 1016 hPa
Nuvole: Sereno
Visibilita: oltre 10 km
dettagli cloud: Sereno
LIPY 061020Z AUTO 05012KT 9999 NCD 29/20 Q1016
  

Script sviluppato da  Saratoga-weather.org Adattato per il modello da  Weerstation Leuven

Potete trovare le nostre info meteo anche a:

Weather Underground

AWEKAS

Citizen Weather Observer Program (CWOP)

HAMweather, WeatherForYou, PWS Weather

Strumentazione usata:

Stazione meteo
Oregon 928

Programma gestore dati meteo
WVIEW

Server per i dati meteo
Pc-WDS5

Oregon 928

WVIEW

Pc-WDS5